sensor_id;sensor_type;location;lat;lon;timestamp;P1;durP1;ratioP1;P2;durP2;ratioP2
18838;SDS011;9548;56.920;14.804;2023-05-07T00:00:39;2.80;;;1.17;;
18838;SDS011;9548;56.920;14.804;2023-05-07T00:03:07;1.35;;;0.93;;
18838;SDS011;9548;56.920;14.804;2023-05-07T00:05:35;1.55;;;1.10;;
18838;SDS011;9548;56.920;14.804;2023-05-07T00:08:03;3.55;;;1.35;;
18838;SDS011;9548;56.920;14.804;2023-05-07T00:10:30;2.25;;;1.35;;
18838;SDS011;9548;56.920;14.804;2023-05-07T00:12:57;1.40;;;1.20;;
18838;SDS011;9548;56.920;14.804;2023-05-07T00:15:24;2.78;;;1.20;;
18838;SDS011;9548;56.920;14.804;2023-05-07T00:17:51;2.85;;;1.10;;
18838;SDS011;9548;56.920;14.804;2023-05-07T00:20:18;5.03;;;1.23;;
18838;SDS011;9548;56.920;14.804;2023-05-07T00:22:46;2.10;;;1.10;;
18838;SDS011;9548;56.920;14.804;2023-05-07T00:25:13;3.28;;;1.42;;
18838;SDS011;9548;56.920;14.804;2023-05-07T00:27:40;2.85;;;1.25;;
18838;SDS011;9548;56.920;14.804;2023-05-07T00:30:07;3.97;;;1.27;;
18838;SDS011;9548;56.920;14.804;2023-05-07T00:32:34;3.05;;;1.23;;
18838;SDS011;9548;56.920;14.804;2023-05-07T00:35:01;2.03;;;1.30;;
18838;SDS011;9548;56.920;14.804;2023-05-07T00:37:28;2.95;;;1.50;;
18838;SDS011;9548;56.920;14.804;2023-05-07T00:39:57;2.08;;;1.30;;
18838;SDS011;9548;56.920;14.804;2023-05-07T00:42:24;3.60;;;1.60;;
18838;SDS011;9548;56.920;14.804;2023-05-07T00:44:51;2.22;;;1.35;;
18838;SDS011;9548;56.920;14.804;2023-05-07T00:47:18;2.13;;;1.40;;
18838;SDS011;9548;56.920;14.804;2023-05-07T00:49:45;2.45;;;1.35;;
18838;SDS011;9548;56.920;14.804;2023-05-07T00:52:13;5.20;;;1.42;;
18838;SDS011;9548;56.920;14.804;2023-05-07T00:54:41;1.65;;;1.30;;
18838;SDS011;9548;56.920;14.804;2023-05-07T00:57:10;2.17;;;1.50;;
18838;SDS011;9548;56.920;14.804;2023-05-07T00:59:37;5.35;;;1.20;;
18838;SDS011;9548;56.920;14.804;2023-05-07T01:02:05;3.80;;;1.27;;
18838;SDS011;9548;56.920;14.804;2023-05-07T01:04:32;3.10;;;1.15;;
18838;SDS011;9548;56.920;14.804;2023-05-07T01:07:00;2.05;;;1.25;;
18838;SDS011;9548;56.920;14.804;2023-05-07T01:09:28;5.35;;;1.27;;
18838;SDS011;9548;56.920;14.804;2023-05-07T01:11:55;3.03;;;1.63;;
18838;SDS011;9548;56.920;14.804;2023-05-07T01:14:25;5.30;;;1.17;;
18838;SDS011;9548;56.920;14.804;2023-05-07T01:16:52;3.00;;;1.30;;
18838;SDS011;9548;56.920;14.804;2023-05-07T01:19:19;3.15;;;1.48;;
18838;SDS011;9548;56.920;14.804;2023-05-07T01:21:47;2.72;;;1.30;;
18838;SDS011;9548;56.920;14.804;2023-05-07T01:24:16;1.88;;;1.30;;
18838;SDS011;9548;56.920;14.804;2023-05-07T01:26:44;1.90;;;1.40;;
18838;SDS011;9548;56.920;14.804;2023-05-07T01:29:11;4.68;;;1.73;;
18838;SDS011;9548;56.920;14.804;2023-05-07T01:31:38;3.00;;;1.50;;
18838;SDS011;9548;56.920;14.804;2023-05-07T01:34:07;2.05;;;1.20;;
18838;SDS011;9548;56.920;14.804;2023-05-07T01:36:36;2.30;;;1.35;;
18838;SDS011;9548;56.920;14.804;2023-05-07T01:39:05;2.55;;;1.40;;
18838;SDS011;9548;56.920;14.804;2023-05-07T01:41:34;2.35;;;1.50;;
18838;SDS011;9548;56.920;14.804;2023-05-07T01:44:01;2.33;;;1.40;;
18838;SDS011;9548;56.920;14.804;2023-05-07T01:46:29;2.00;;;1.50;;
18838;SDS011;9548;56.920;14.804;2023-05-07T01:48:57;2.50;;;1.45;;
18838;SDS011;9548;56.920;14.804;2023-05-07T01:51:24;5.28;;;1.50;;
18838;SDS011;9548;56.920;14.804;2023-05-07T01:53:52;1.58;;;1.13;;
18838;SDS011;9548;56.920;14.804;2023-05-07T01:56:19;3.13;;;1.55;;
18838;SDS011;9548;56.920;14.804;2023-05-07T01:58:47;3.53;;;2.00;;
18838;SDS011;9548;56.920;14.804;2023-05-07T02:01:16;3.65;;;1.52;;
18838;SDS011;9548;56.920;14.804;2023-05-07T02:03:43;1.67;;;1.38;;
18838;SDS011;9548;56.920;14.804;2023-05-07T02:06:10;3.08;;;1.55;;
18838;SDS011;9548;56.920;14.804;2023-05-07T02:08:37;3.78;;;1.35;;
18838;SDS011;9548;56.920;14.804;2023-05-07T02:11:04;2.95;;;1.67;;
18838;SDS011;9548;56.920;14.804;2023-05-07T02:13:31;5.22;;;1.40;;
18838;SDS011;9548;56.920;14.804;2023-05-07T02:16:00;4.60;;;1.63;;
18838;SDS011;9548;56.920;14.804;2023-05-07T02:18:28;4.68;;;1.83;;
18838;SDS011;9548;56.920;14.804;2023-05-07T02:20:54;4.38;;;1.80;;
18838;SDS011;9548;56.920;14.804;2023-05-07T02:23:21;4.65;;;1.70;;
18838;SDS011;9548;56.920;14.804;2023-05-07T02:25:49;6.07;;;1.90;;
18838;SDS011;9548;56.920;14.804;2023-05-07T02:28:15;3.35;;;1.60;;
18838;SDS011;9548;56.920;14.804;2023-05-07T02:30:42;3.00;;;1.90;;
18838;SDS011;9548;56.920;14.804;2023-05-07T02:33:11;4.15;;;2.22;;
18838;SDS011;9548;56.920;14.804;2023-05-07T02:35:38;7.18;;;1.92;;
18838;SDS011;9548;56.920;14.804;2023-05-07T02:38:05;3.10;;;1.50;;
18838;SDS011;9548;56.920;14.804;2023-05-07T02:40:32;3.50;;;2.13;;
18838;SDS011;9548;56.920;14.804;2023-05-07T02:43:03;5.18;;;2.08;;
18838;SDS011;9548;56.920;14.804;2023-05-07T02:45:30;3.25;;;1.90;;
18838;SDS011;9548;56.920;14.804;2023-05-07T02:47:57;3.05;;;1.60;;
18838;SDS011;9548;56.920;14.804;2023-05-07T02:50:25;7.00;;;1.95;;
18838;SDS011;9548;56.920;14.804;2023-05-07T02:52:52;4.70;;;1.83;;
18838;SDS011;9548;56.920;14.804;2023-05-07T02:55:19;4.93;;;1.80;;
18838;SDS011;9548;56.920;14.804;2023-05-07T02:57:46;5.28;;;2.00;;
18838;SDS011;9548;56.920;14.804;2023-05-07T03:00:13;3.53;;;1.60;;
18838;SDS011;9548;56.920;14.804;2023-05-07T03:02:42;4.68;;;1.70;;
18838;SDS011;9548;56.920;14.804;2023-05-07T03:05:08;3.67;;;1.77;;
18838;SDS011;9548;56.920;14.804;2023-05-07T03:07:37;3.13;;;2.17;;
18838;SDS011;9548;56.920;14.804;2023-05-07T03:10:04;4.82;;;1.92;;
18838;SDS011;9548;56.920;14.804;2023-05-07T03:12:31;4.22;;;2.00;;
18838;SDS011;9548;56.920;14.804;2023-05-07T03:14:58;4.25;;;1.80;;
18838;SDS011;9548;56.920;14.804;2023-05-07T03:17:25;3.40;;;1.85;;
18838;SDS011;9548;56.920;14.804;2023-05-07T03:19:52;5.00;;;2.00;;
18838;SDS011;9548;56.920;14.804;2023-05-07T03:22:19;3.33;;;2.03;;
18838;SDS011;9548;56.920;14.804;2023-05-07T03:24:48;4.75;;;1.90;;
18838;SDS011;9548;56.920;14.804;2023-05-07T03:27:15;3.80;;;2.00;;
18838;SDS011;9548;56.920;14.804;2023-05-07T03:29:41;5.15;;;2.00;;
18838;SDS011;9548;56.920;14.804;2023-05-07T03:32:08;4.30;;;2.00;;
18838;SDS011;9548;56.920;14.804;2023-05-07T03:34:35;2.67;;;1.70;;
18838;SDS011;9548;56.920;14.804;2023-05-07T03:37:02;2.65;;;1.70;;
18838;SDS011;9548;56.920;14.804;2023-05-07T03:39:29;2.72;;;1.80;;
18838;SDS011;9548;56.920;14.804;2023-05-07T03:41:58;2.30;;;1.55;;
18838;SDS011;9548;56.920;14.804;2023-05-07T03:44:26;3.38;;;1.75;;
18838;SDS011;9548;56.920;14.804;2023-05-07T03:46:53;4.75;;;2.35;;
18838;SDS011;9548;56.920;14.804;2023-05-07T03:49:20;5.20;;;1.90;;
18838;SDS011;9548;56.920;14.804;2023-05-07T03:51:47;2.95;;;1.92;;
18838;SDS011;9548;56.920;14.804;2023-05-07T03:54:14;5.63;;;2.00;;
18838;SDS011;9548;56.920;14.804;2023-05-07T03:56:41;5.57;;;2.05;;
18838;SDS011;9548;56.920;14.804;2023-05-07T03:59:09;3.78;;;1.73;;
18838;SDS011;9548;56.920;14.804;2023-05-07T04:01:36;3.30;;;1.52;;
18838;SDS011;9548;56.920;14.804;2023-05-07T04:04:03;5.03;;;1.92;;
18838;SDS011;9548;56.920;14.804;2023-05-07T04:06:30;3.15;;;1.85;;
18838;SDS011;9548;56.920;14.804;2023-05-07T04:08:57;3.90;;;2.13;;
18838;SDS011;9548;56.920;14.804;2023-05-07T04:11:24;2.75;;;1.80;;
18838;SDS011;9548;56.920;14.804;2023-05-07T04:13:51;3.33;;;1.70;;
18838;SDS011;9548;56.920;14.804;2023-05-07T04:16:19;4.50;;;2.05;;
18838;SDS011;9548;56.920;14.804;2023-05-07T04:18:46;3.15;;;1.58;;
18838;SDS011;9548;56.920;14.804;2023-05-07T04:21:13;2.97;;;1.88;;
18838;SDS011;9548;56.920;14.804;2023-05-07T04:23:41;3.85;;;1.80;;
18838;SDS011;9548;56.920;14.804;2023-05-07T04:26:08;3.63;;;1.90;;
18838;SDS011;9548;56.920;14.804;2023-05-07T04:28:35;5.07;;;1.75;;
18838;SDS011;9548;56.920;14.804;2023-05-07T04:31:02;2.03;;;1.60;;
18838;SDS011;9548;56.920;14.804;2023-05-07T04:33:30;3.80;;;1.70;;
18838;SDS011;9548;56.920;14.804;2023-05-07T04:35:58;4.68;;;1.67;;
18838;SDS011;9548;56.920;14.804;2023-05-07T04:38:28;5.00;;;1.98;;
18838;SDS011;9548;56.920;14.804;2023-05-07T04:40:55;3.97;;;1.85;;
18838;SDS011;9548;56.920;14.804;2023-05-07T04:43:22;2.95;;;1.80;;
18838;SDS011;9548;56.920;14.804;2023-05-07T04:45:50;5.13;;;1.80;;
18838;SDS011;9548;56.920;14.804;2023-05-07T04:48:17;1.77;;;1.42;;
18838;SDS011;9548;56.920;14.804;2023-05-07T04:50:48;4.45;;;1.70;;
18838;SDS011;9548;56.920;14.804;2023-05-07T04:53:15;1.42;;;1.23;;
18838;SDS011;9548;56.920;14.804;2023-05-07T04:55:42;1.38;;;1.13;;
18838;SDS011;9548;56.920;14.804;2023-05-07T04:58:10;4.05;;;1.20;;
18838;SDS011;9548;56.920;14.804;2023-05-07T05:00:37;3.58;;;1.48;;
18838;SDS011;9548;56.920;14.804;2023-05-07T05:03:04;2.13;;;1.35;;
18838;SDS011;9548;56.920;14.804;2023-05-07T05:05:32;4.13;;;1.70;;
18838;SDS011;9548;56.920;14.804;2023-05-07T05:08:00;3.95;;;1.40;;
18838;SDS011;9548;56.920;14.804;2023-05-07T05:10:27;6.13;;;1.98;;
18838;SDS011;9548;56.920;14.804;2023-05-07T05:12:54;2.05;;;1.23;;
18838;SDS011;9548;56.920;14.804;2023-05-07T05:15:21;2.30;;;1.30;;
18838;SDS011;9548;56.920;14.804;2023-05-07T05:17:48;3.17;;;1.25;;
18838;SDS011;9548;56.920;14.804;2023-05-07T05:20:15;3.72;;;1.58;;
18838;SDS011;9548;56.920;14.804;2023-05-07T05:22:42;3.22;;;1.15;;
18838;SDS011;9548;56.920;14.804;2023-05-07T05:25:11;2.95;;;1.30;;
18838;SDS011;9548;56.920;14.804;2023-05-07T05:27:37;2.08;;;1.35;;
18838;SDS011;9548;56.920;14.804;2023-05-07T05:30:05;3.40;;;1.30;;
18838;SDS011;9548;56.920;14.804;2023-05-07T05:32:32;2.45;;;1.08;;
18838;SDS011;9548;56.920;14.804;2023-05-07T05:34:59;2.28;;;1.25;;
18838;SDS011;9548;56.920;14.804;2023-05-07T05:37:26;4.57;;;1.50;;
18838;SDS011;9548;56.920;14.804;2023-05-07T05:39:55;2.60;;;1.05;;
18838;SDS011;9548;56.920;14.804;2023-05-07T05:42:23;3.78;;;1.75;;
18838;SDS011;9548;56.920;14.804;2023-05-07T05:44:50;3.50;;;1.40;;
18838;SDS011;9548;56.920;14.804;2023-05-07T05:47:17;2.88;;;1.30;;
18838;SDS011;9548;56.920;14.804;2023-05-07T05:49:44;3.53;;;1.15;;
18838;SDS011;9548;56.920;14.804;2023-05-07T05:52:11;2.95;;;1.30;;
18838;SDS011;9548;56.920;14.804;2023-05-07T05:54:39;5.82;;;1.17;;
18838;SDS011;9548;56.920;14.804;2023-05-07T05:57:05;5.55;;;1.13;;
18838;SDS011;9548;56.920;14.804;2023-05-07T05:59:34;1.67;;;0.90;;
18838;SDS011;9548;56.920;14.804;2023-05-07T06:02:01;3.65;;;0.98;;
18838;SDS011;9548;56.920;14.804;2023-05-07T06:04:28;1.38;;;1.00;;
18838;SDS011;9548;56.920;14.804;2023-05-07T06:06:55;3.30;;;1.27;;
18838;SDS011;9548;56.920;14.804;2023-05-07T06:09:22;3.28;;;1.00;;
18838;SDS011;9548;56.920;14.804;2023-05-07T06:11:49;1.88;;;1.30;;
18838;SDS011;9548;56.920;14.804;2023-05-07T06:14:16;2.47;;;1.02;;
18838;SDS011;9548;56.920;14.804;2023-05-07T06:19:12;1.73;;;1.00;;
18838;SDS011;9548;56.920;14.804;2023-05-07T06:21:39;2.38;;;1.23;;
18838;SDS011;9548;56.920;14.804;2023-05-07T06:24:06;1.90;;;0.90;;
18838;SDS011;9548;56.920;14.804;2023-05-07T06:26:33;4.00;;;1.50;;
18838;SDS011;9548;56.920;14.804;2023-05-07T06:29:01;5.15;;;1.02;;
18838;SDS011;9548;56.920;14.804;2023-05-07T06:31:29;6.35;;;1.35;;
18838;SDS011;9548;56.920;14.804;2023-05-07T06:33:58;2.83;;;1.25;;
18838;SDS011;9548;56.920;14.804;2023-05-07T06:36:27;1.45;;;0.93;;
18838;SDS011;9548;56.920;14.804;2023-05-07T06:38:54;6.05;;;1.00;;
18838;SDS011;9548;56.920;14.804;2023-05-07T06:41:21;2.92;;;1.25;;
18838;SDS011;9548;56.920;14.804;2023-05-07T06:43:48;4.70;;;1.40;;
18838;SDS011;9548;56.920;14.804;2023-05-07T06:46:15;1.58;;;1.20;;
18838;SDS011;9548;56.920;14.804;2023-05-07T06:48:42;1.58;;;0.98;;
18838;SDS011;9548;56.920;14.804;2023-05-07T06:51:10;3.67;;;1.20;;
18838;SDS011;9548;56.920;14.804;2023-05-07T06:53:40;3.25;;;0.77;;
18838;SDS011;9548;56.920;14.804;2023-05-07T06:56:07;1.90;;;1.10;;
18838;SDS011;9548;56.920;14.804;2023-05-07T06:58:34;2.22;;;1.38;;
18838;SDS011;9548;56.920;14.804;2023-05-07T07:01:00;4.78;;;1.00;;
18838;SDS011;9548;56.920;14.804;2023-05-07T07:03:27;3.80;;;1.33;;
18838;SDS011;9548;56.920;14.804;2023-05-07T07:05:54;2.45;;;1.00;;
18838;SDS011;9548;56.920;14.804;2023-05-07T07:08:23;5.15;;;1.02;;
18838;SDS011;9548;56.920;14.804;2023-05-07T07:10:50;1.40;;;1.02;;
18838;SDS011;9548;56.920;14.804;2023-05-07T07:13:17;2.17;;;0.90;;
18838;SDS011;9548;56.920;14.804;2023-05-07T07:15:44;3.75;;;1.20;;
18838;SDS011;9548;56.920;14.804;2023-05-07T07:18:11;3.88;;;1.10;;
18838;SDS011;9548;56.920;14.804;2023-05-07T07:20:38;2.28;;;1.17;;
18838;SDS011;9548;56.920;14.804;2023-05-07T07:23:05;8.48;;;1.10;;
18838;SDS011;9548;56.920;14.804;2023-05-07T07:25:33;1.85;;;1.15;;
18838;SDS011;9548;56.920;14.804;2023-05-07T07:28:00;2.03;;;1.00;;
18838;SDS011;9548;56.920;14.804;2023-05-07T07:30:27;2.45;;;0.80;;
18838;SDS011;9548;56.920;14.804;2023-05-07T07:32:53;2.58;;;1.35;;
18838;SDS011;9548;56.920;14.804;2023-05-07T07:35:25;1.17;;;1.00;;
18838;SDS011;9548;56.920;14.804;2023-05-07T07:37:52;5.85;;;1.20;;
18838;SDS011;9548;56.920;14.804;2023-05-07T07:40:19;9.18;;;1.10;;
18838;SDS011;9548;56.920;14.804;2023-05-07T07:42:47;2.80;;;0.95;;
18838;SDS011;9548;56.920;14.804;2023-05-07T07:45:14;6.18;;;1.15;;
18838;SDS011;9548;56.920;14.804;2023-05-07T07:47:41;3.53;;;1.10;;
18838;SDS011;9548;56.920;14.804;2023-05-07T07:50:08;1.75;;;1.00;;
18838;SDS011;9548;56.920;14.804;2023-05-07T07:52:36;3.58;;;1.20;;
18838;SDS011;9548;56.920;14.804;2023-05-07T07:55:03;3.08;;;0.93;;
18838;SDS011;9548;56.920;14.804;2023-05-07T07:57:31;2.47;;;1.13;;
18838;SDS011;9548;56.920;14.804;2023-05-07T07:59:59;1.60;;;1.15;;
18838;SDS011;9548;56.920;14.804;2023-05-07T08:02:27;2.35;;;1.10;;
18838;SDS011;9548;56.920;14.804;2023-05-07T08:04:54;2.15;;;1.10;;
18838;SDS011;9548;56.920;14.804;2023-05-07T08:07:21;6.15;;;1.20;;
18838;SDS011;9548;56.920;14.804;2023-05-07T08:09:48;4.05;;;1.20;;
18838;SDS011;9548;56.920;14.804;2023-05-07T08:12:15;2.63;;;1.08;;
18838;SDS011;9548;56.920;14.804;2023-05-07T08:14:42;6.97;;;1.08;;
18838;SDS011;9548;56.920;14.804;2023-05-07T08:17:10;3.15;;;1.20;;
18838;SDS011;9548;56.920;14.804;2023-05-07T08:19:41;2.08;;;1.23;;
18838;SDS011;9548;56.920;14.804;2023-05-07T08:22:08;3.83;;;1.50;;
18838;SDS011;9548;56.920;14.804;2023-05-07T08:24:35;2.45;;;1.20;;
18838;SDS011;9548;56.920;14.804;2023-05-07T08:27:02;2.65;;;1.50;;
18838;SDS011;9548;56.920;14.804;2023-05-07T08:29:29;2.78;;;1.70;;
18838;SDS011;9548;56.920;14.804;2023-05-07T08:31:56;9.50;;;1.80;;
18838;SDS011;9548;56.920;14.804;2023-05-07T08:34:24;3.67;;;1.70;;
18838;SDS011;9548;56.920;14.804;2023-05-07T08:36:51;3.30;;;1.67;;
18838;SDS011;9548;56.920;14.804;2023-05-07T08:39:18;6.03;;;1.60;;
18838;SDS011;9548;56.920;14.804;2023-05-07T08:41:45;3.75;;;1.38;;
18838;SDS011;9548;56.920;14.804;2023-05-07T08:44:14;3.45;;;1.70;;
18838;SDS011;9548;56.920;14.804;2023-05-07T08:46:47;2.83;;;1.80;;
18838;SDS011;9548;56.920;14.804;2023-05-07T08:49:16;1.92;;;1.48;;
18838;SDS011;9548;56.920;14.804;2023-05-07T08:51:45;2.22;;;1.50;;
18838;SDS011;9548;56.920;14.804;2023-05-07T08:54:12;4.15;;;1.58;;
18838;SDS011;9548;56.920;14.804;2023-05-07T08:56:42;5.13;;;1.80;;
18838;SDS011;9548;56.920;14.804;2023-05-07T08:59:10;3.25;;;1.65;;
18838;SDS011;9548;56.920;14.804;2023-05-07T09:01:37;3.03;;;1.85;;
18838;SDS011;9548;56.920;14.804;2023-05-07T09:04:04;1.90;;;1.40;;
18838;SDS011;9548;56.920;14.804;2023-05-07T09:06:31;2.95;;;1.50;;
18838;SDS011;9548;56.920;14.804;2023-05-07T09:09:00;4.32;;;1.70;;
18838;SDS011;9548;56.920;14.804;2023-05-07T09:11:30;2.60;;;1.88;;
18838;SDS011;9548;56.920;14.804;2023-05-07T09:13:57;4.22;;;2.10;;
18838;SDS011;9548;56.920;14.804;2023-05-07T09:16:26;3.17;;;1.88;;
18838;SDS011;9548;56.920;14.804;2023-05-07T09:18:56;10.05;;;2.17;;
18838;SDS011;9548;56.920;14.804;2023-05-07T09:21:24;6.55;;;1.98;;
18838;SDS011;9548;56.920;14.804;2023-05-07T09:23:52;5.20;;;1.92;;
18838;SDS011;9548;56.920;14.804;2023-05-07T09:26:22;4.93;;;2.08;;
18838;SDS011;9548;56.920;14.804;2023-05-07T09:28:49;3.78;;;1.73;;
18838;SDS011;9548;56.920;14.804;2023-05-07T09:31:16;2.80;;;1.80;;
18838;SDS011;9548;56.920;14.804;2023-05-07T09:33:43;3.35;;;1.73;;
18838;SDS011;9548;56.920;14.804;2023-05-07T09:36:10;2.50;;;1.55;;
18838;SDS011;9548;56.920;14.804;2023-05-07T09:38:38;7.13;;;2.20;;
18838;SDS011;9548;56.920;14.804;2023-05-07T09:41:06;5.75;;;1.67;;
18838;SDS011;9548;56.920;14.804;2023-05-07T09:43:36;4.78;;;1.70;;
18838;SDS011;9548;56.920;14.804;2023-05-07T09:48:34;4.63;;;1.75;;
18838;SDS011;9548;56.920;14.804;2023-05-07T09:51:06;3.60;;;1.55;;
18838;SDS011;9548;56.920;14.804;2023-05-07T09:53:41;4.53;;;1.80;;
18838;SDS011;9548;56.920;14.804;2023-05-07T09:56:11;2.13;;;1.75;;
18838;SDS011;9548;56.920;14.804;2023-05-07T09:58:41;1.85;;;1.60;;
18838;SDS011;9548;56.920;14.804;2023-05-07T10:01:10;2.05;;;1.60;;
18838;SDS011;9548;56.920;14.804;2023-05-07T10:03:39;3.30;;;1.73;;
18838;SDS011;9548;56.920;14.804;2023-05-07T10:06:08;2.83;;;1.48;;
18838;SDS011;9548;56.920;14.804;2023-05-07T10:08:35;4.40;;;1.58;;
18838;SDS011;9548;56.920;14.804;2023-05-07T10:11:03;2.85;;;1.40;;
18838;SDS011;9548;56.920;14.804;2023-05-07T10:13:31;2.70;;;1.60;;
18838;SDS011;9548;56.920;14.804;2023-05-07T10:16:01;2.13;;;1.40;;
18838;SDS011;9548;56.920;14.804;2023-05-07T10:18:29;2.17;;;1.60;;
18838;SDS011;9548;56.920;14.804;2023-05-07T10:20:59;4.38;;;1.50;;
18838;SDS011;9548;56.920;14.804;2023-05-07T10:23:30;3.72;;;1.20;;
18838;SDS011;9548;56.920;14.804;2023-05-07T10:25:58;3.20;;;2.00;;
18838;SDS011;9548;56.920;14.804;2023-05-07T10:28:28;6.78;;;1.63;;
18838;SDS011;9548;56.920;14.804;2023-05-07T10:30:59;3.35;;;1.60;;
18838;SDS011;9548;56.920;14.804;2023-05-07T10:33:36;3.00;;;1.70;;
18838;SDS011;9548;56.920;14.804;2023-05-07T10:36:04;4.90;;;1.63;;
18838;SDS011;9548;56.920;14.804;2023-05-07T10:38:33;2.88;;;1.70;;
18838;SDS011;9548;56.920;14.804;2023-05-07T10:41:00;5.82;;;1.80;;
18838;SDS011;9548;56.920;14.804;2023-05-07T10:43:38;2.83;;;1.60;;
18838;SDS011;9548;56.920;14.804;2023-05-07T10:46:10;3.78;;;1.63;;
18838;SDS011;9548;56.920;14.804;2023-05-07T10:51:35;3.13;;;1.63;;
18838;SDS011;9548;56.920;14.804;2023-05-07T10:56:47;2.60;;;1.70;;
18838;SDS011;9548;56.920;14.804;2023-05-07T10:59:31;3.90;;;1.60;;
18838;SDS011;9548;56.920;14.804;2023-05-07T11:02:08;5.28;;;2.00;;
18838;SDS011;9548;56.920;14.804;2023-05-07T11:04:39;4.22;;;1.42;;
18838;SDS011;9548;56.920;14.804;2023-05-07T11:09:55;4.22;;;1.48;;
18838;SDS011;9548;56.920;14.804;2023-05-07T11:15:34;9.40;;;1.73;;
18838;SDS011;9548;56.920;14.804;2023-05-07T11:18:04;4.53;;;1.60;;
18838;SDS011;9548;56.920;14.804;2023-05-07T11:26:22;3.33;;;1.38;;
18838;SDS011;9548;56.920;14.804;2023-05-07T11:28:50;4.25;;;1.52;;
18838;SDS011;9548;56.920;14.804;2023-05-07T11:31:20;4.45;;;1.50;;
18838;SDS011;9548;56.920;14.804;2023-05-07T11:33:50;2.75;;;1.67;;
18838;SDS011;9548;56.920;14.804;2023-05-07T11:36:18;1.95;;;1.48;;
18838;SDS011;9548;56.920;14.804;2023-05-07T11:38:45;2.80;;;1.40;;
18838;SDS011;9548;56.920;14.804;2023-05-07T11:41:13;2.70;;;1.58;;
18838;SDS011;9548;56.920;14.804;2023-05-07T11:43:53;2.13;;;1.35;;
18838;SDS011;9548;56.920;14.804;2023-05-07T11:46:24;7.28;;;1.50;;
18838;SDS011;9548;56.920;14.804;2023-05-07T11:48:52;1.38;;;1.27;;
18838;SDS011;9548;56.920;14.804;2023-05-07T11:51:20;5.05;;;1.77;;
18838;SDS011;9548;56.920;14.804;2023-05-07T11:53:48;2.33;;;1.48;;
18838;SDS011;9548;56.920;14.804;2023-05-07T11:56:16;6.97;;;1.70;;
18838;SDS011;9548;56.920;14.804;2023-05-07T11:58:44;3.40;;;1.58;;
18838;SDS011;9548;56.920;14.804;2023-05-07T12:01:12;2.40;;;1.90;;
18838;SDS011;9548;56.920;14.804;2023-05-07T12:03:40;3.75;;;1.42;;
18838;SDS011;9548;56.920;14.804;2023-05-07T12:06:10;5.15;;;1.83;;
18838;SDS011;9548;56.920;14.804;2023-05-07T12:08:37;2.13;;;1.50;;
18838;SDS011;9548;56.920;14.804;2023-05-07T12:11:08;4.38;;;1.35;;
18838;SDS011;9548;56.920;14.804;2023-05-07T12:13:36;4.32;;;1.70;;
18838;SDS011;9548;56.920;14.804;2023-05-07T12:16:05;3.45;;;1.50;;
18838;SDS011;9548;56.920;14.804;2023-05-07T12:18:32;1.55;;;1.40;;
18838;SDS011;9548;56.920;14.804;2023-05-07T12:21:01;2.05;;;1.30;;
18838;SDS011;9548;56.920;14.804;2023-05-07T12:23:29;3.55;;;1.60;;
18838;SDS011;9548;56.920;14.804;2023-05-07T12:25:57;2.22;;;1.40;;
18838;SDS011;9548;56.920;14.804;2023-05-07T12:28:25;4.35;;;1.50;;
18838;SDS011;9548;56.920;14.804;2023-05-07T12:30:52;6.63;;;1.65;;
18838;SDS011;9548;56.920;14.804;2023-05-07T12:33:23;7.85;;;1.60;;
18838;SDS011;9548;56.920;14.804;2023-05-07T12:35:53;2.00;;;1.45;;
18838;SDS011;9548;56.920;14.804;2023-05-07T12:38:21;2.00;;;1.40;;
18838;SDS011;9548;56.920;14.804;2023-05-07T12:40:50;2.25;;;1.50;;
18838;SDS011;9548;56.920;14.804;2023-05-07T12:43:20;3.55;;;1.40;;
18838;SDS011;9548;56.920;14.804;2023-05-07T12:45:48;3.63;;;1.67;;
18838;SDS011;9548;56.920;14.804;2023-05-07T12:48:16;3.63;;;1.63;;
18838;SDS011;9548;56.920;14.804;2023-05-07T12:50:43;2.30;;;1.55;;
18838;SDS011;9548;56.920;14.804;2023-05-07T12:53:11;1.98;;;1.40;;
18838;SDS011;9548;56.920;14.804;2023-05-07T12:55:41;4.05;;;1.63;;
18838;SDS011;9548;56.920;14.804;2023-05-07T12:58:15;4.68;;;1.48;;
18838;SDS011;9548;56.920;14.804;2023-05-07T13:00:43;5.53;;;1.50;;
18838;SDS011;9548;56.920;14.804;2023-05-07T13:03:10;2.35;;;1.60;;
18838;SDS011;9548;56.920;14.804;2023-05-07T13:05:37;3.25;;;1.40;;
18838;SDS011;9548;56.920;14.804;2023-05-07T13:08:05;5.57;;;1.50;;
18838;SDS011;9548;56.920;14.804;2023-05-07T13:10:34;4.75;;;1.65;;
18838;SDS011;9548;56.920;14.804;2023-05-07T13:13:01;4.35;;;1.60;;
18838;SDS011;9548;56.920;14.804;2023-05-07T13:15:30;7.82;;;1.35;;
18838;SDS011;9548;56.920;14.804;2023-05-07T13:17:57;3.00;;;1.50;;
18838;SDS011;9548;56.920;14.804;2023-05-07T13:20:24;4.15;;;1.55;;
18838;SDS011;9548;56.920;14.804;2023-05-07T13:22:51;2.72;;;1.30;;
18838;SDS011;9548;56.920;14.804;2023-05-07T13:25:18;2.45;;;1.42;;
18838;SDS011;9548;56.920;14.804;2023-05-07T13:27:45;2.05;;;1.30;;
18838;SDS011;9548;56.920;14.804;2023-05-07T13:30:11;1.80;;;1.60;;
18838;SDS011;9548;56.920;14.804;2023-05-07T13:32:40;3.22;;;1.65;;
18838;SDS011;9548;56.920;14.804;2023-05-07T13:35:07;2.25;;;1.55;;
18838;SDS011;9548;56.920;14.804;2023-05-07T13:37:34;4.32;;;1.50;;
18838;SDS011;9548;56.920;14.804;2023-05-07T13:40:01;2.97;;;1.40;;
18838;SDS011;9548;56.920;14.804;2023-05-07T13:42:28;2.58;;;1.50;;
18838;SDS011;9548;56.920;14.804;2023-05-07T13:44:56;6.03;;;1.80;;
18838;SDS011;9548;56.920;14.804;2023-05-07T13:47:23;3.15;;;1.55;;
18838;SDS011;9548;56.920;14.804;2023-05-07T13:49:51;4.88;;;1.80;;
18838;SDS011;9548;56.920;14.804;2023-05-07T13:52:18;4.22;;;1.70;;
18838;SDS011;9548;56.920;14.804;2023-05-07T13:54:45;4.80;;;1.48;;
18838;SDS011;9548;56.920;14.804;2023-05-07T13:57:12;5.32;;;1.60;;
18838;SDS011;9548;56.920;14.804;2023-05-07T13:59:40;3.88;;;1.67;;
18838;SDS011;9548;56.920;14.804;2023-05-07T14:02:07;3.95;;;1.55;;
18838;SDS011;9548;56.920;14.804;2023-05-07T14:04:34;3.22;;;1.52;;
18838;SDS011;9548;56.920;14.804;2023-05-07T14:07:02;4.03;;;1.73;;
18838;SDS011;9548;56.920;14.804;2023-05-07T14:09:30;2.08;;;1.67;;
18838;SDS011;9548;56.920;14.804;2023-05-07T14:11:57;3.88;;;1.63;;
18838;SDS011;9548;56.920;14.804;2023-05-07T14:14:25;2.47;;;1.30;;
18838;SDS011;9548;56.920;14.804;2023-05-07T14:16:52;3.63;;;1.75;;
18838;SDS011;9548;56.920;14.804;2023-05-07T14:19:19;3.53;;;1.42;;
18838;SDS011;9548;56.920;14.804;2023-05-07T14:21:47;2.88;;;1.70;;
18838;SDS011;9548;56.920;14.804;2023-05-07T14:24:15;4.10;;;1.50;;
18838;SDS011;9548;56.920;14.804;2023-05-07T14:26:42;3.03;;;1.50;;
18838;SDS011;9548;56.920;14.804;2023-05-07T14:29:10;1.52;;;1.20;;
18838;SDS011;9548;56.920;14.804;2023-05-07T14:31:37;4.20;;;1.77;;
18838;SDS011;9548;56.920;14.804;2023-05-07T14:34:04;3.92;;;1.63;;
18838;SDS011;9548;56.920;14.804;2023-05-07T14:36:31;1.63;;;1.33;;
18838;SDS011;9548;56.920;14.804;2023-05-07T14:38:57;4.55;;;1.55;;
18838;SDS011;9548;56.920;14.804;2023-05-07T14:41:26;2.15;;;1.40;;
18838;SDS011;9548;56.920;14.804;2023-05-07T14:43:53;1.63;;;1.40;;
18838;SDS011;9548;56.920;14.804;2023-05-07T14:46:20;3.22;;;1.40;;
18838;SDS011;9548;56.920;14.804;2023-05-07T14:48:47;5.57;;;1.60;;
18838;SDS011;9548;56.920;14.804;2023-05-07T14:51:14;5.75;;;1.42;;
18838;SDS011;9548;56.920;14.804;2023-05-07T14:53:41;5.60;;;1.40;;
18838;SDS011;9548;56.920;14.804;2023-05-07T14:56:08;2.83;;;1.40;;
18838;SDS011;9548;56.920;14.804;2023-05-07T14:58:36;3.00;;;1.27;;
18838;SDS011;9548;56.920;14.804;2023-05-07T15:01:03;1.30;;;1.20;;
18838;SDS011;9548;56.920;14.804;2023-05-07T15:03:30;2.90;;;1.50;;
18838;SDS011;9548;56.920;14.804;2023-05-07T15:05:57;5.18;;;1.90;;
18838;SDS011;9548;56.920;14.804;2023-05-07T15:08:24;2.00;;;1.77;;
18838;SDS011;9548;56.920;14.804;2023-05-07T15:10:51;4.30;;;1.40;;
18838;SDS011;9548;56.920;14.804;2023-05-07T15:13:18;5.82;;;1.33;;